sensor_id;sensor_type;location;lat;lon;timestamp;pressure;altitude;pressure_sealevel;temperature;humidity
15263;BME280;7733;51.554;13.590;2023-02-12T00:02:17;102268.00;;;7.71;100.00
15263;BME280;7733;51.554;13.590;2023-02-12T00:04:43;102268.34;;;7.83;100.00
15263;BME280;7733;51.554;13.590;2023-02-12T00:07:09;102272.13;;;7.94;100.00
15263;BME280;7733;51.554;13.590;2023-02-12T00:09:36;102276.22;;;7.84;100.00
15263;BME280;7733;51.554;13.590;2023-02-12T00:12:02;102278.97;;;7.89;100.00
15263;BME280;7733;51.554;13.590;2023-02-12T00:14:28;102281.97;;;7.73;100.00
15263;BME280;7733;51.554;13.590;2023-02-12T00:16:54;102285.41;;;7.70;100.00
15263;BME280;7733;51.554;13.590;2023-02-12T00:19:19;102278.19;;;7.61;100.00
15263;BME280;7733;51.554;13.590;2023-02-12T00:21:45;102284.59;;;7.73;100.00
15263;BME280;7733;51.554;13.590;2023-02-12T00:24:11;102280.94;;;7.66;100.00
15263;BME280;7733;51.554;13.590;2023-02-12T00:26:37;102282.66;;;7.66;100.00
15263;BME280;7733;51.554;13.590;2023-02-12T00:29:03;102293.41;;;7.76;100.00
15263;BME280;7733;51.554;13.590;2023-02-12T00:31:30;102291.91;;;7.84;100.00
15263;BME280;7733;51.554;13.590;2023-02-12T00:33:58;102291.34;;;7.65;100.00
15263;BME280;7733;51.554;13.590;2023-02-12T00:36:28;102291.31;;;7.63;100.00
15263;BME280;7733;51.554;13.590;2023-02-12T00:38:55;102293.41;;;7.76;100.00
15263;BME280;7733;51.554;13.590;2023-02-12T00:41:22;102304.16;;;7.87;100.00
15263;BME280;7733;51.554;13.590;2023-02-12T00:43:49;102305.81;;;7.83;100.00
15263;BME280;7733;51.554;13.590;2023-02-12T00:46:15;102317.28;;;7.88;100.00
15263;BME280;7733;51.554;13.590;2023-02-12T00:48:40;102307.22;;;7.72;100.00
15263;BME280;7733;51.554;13.590;2023-02-12T00:51:07;102301.09;;;7.72;100.00
15263;BME280;7733;51.554;13.590;2023-02-12T00:53:33;102301.09;;;7.72;100.00
15263;BME280;7733;51.554;13.590;2023-02-12T00:56:00;102303.81;;;7.75;100.00
15263;BME280;7733;51.554;13.590;2023-02-12T00:58:26;102302.47;;;7.89;100.00
15263;BME280;7733;51.554;13.590;2023-02-12T01:00:53;102298.84;;;7.84;100.00
15263;BME280;7733;51.554;13.590;2023-02-12T01:03:19;102309.94;;;7.77;100.00
15263;BME280;7733;51.554;13.590;2023-02-12T01:05:45;102312.56;;;7.77;100.00
15263;BME280;7733;51.554;13.590;2023-02-12T01:08:13;102310.56;;;7.67;100.00
15263;BME280;7733;51.554;13.590;2023-02-12T01:10:40;102315.91;;;7.71;100.00
15263;BME280;7733;51.554;13.590;2023-02-12T01:13:06;102314.84;;;7.65;100.00
15263;BME280;7733;51.554;13.590;2023-02-12T01:15:32;102322.19;;;7.48;100.00
15263;BME280;7733;51.554;13.590;2023-02-12T01:17:58;102317.22;;;7.57;100.00
15263;BME280;7733;51.554;13.590;2023-02-12T01:20:24;102318.56;;;7.73;100.00
15263;BME280;7733;51.554;13.590;2023-02-12T01:22:50;102324.44;;;7.66;100.00
15263;BME280;7733;51.554;13.590;2023-02-12T01:25:17;102320.66;;;7.84;100.00
15263;BME280;7733;51.554;13.590;2023-02-12T01:27:43;102323.97;;;7.80;100.00
15263;BME280;7733;51.554;13.590;2023-02-12T01:30:12;102331.56;;;8.01;100.00
15263;BME280;7733;51.554;13.590;2023-02-12T01:32:38;102326.06;;;7.92;100.00
15263;BME280;7733;51.554;13.590;2023-02-12T01:35:06;102328.59;;;7.89;100.00
15263;BME280;7733;51.554;13.590;2023-02-12T01:37:35;102327.91;;;7.96;100.00
15263;BME280;7733;51.554;13.590;2023-02-12T01:40:04;102318.91;;;7.85;100.00
15263;BME280;7733;51.554;13.590;2023-02-12T01:42:31;102321.72;;;7.92;100.00
15263;BME280;7733;51.554;13.590;2023-02-12T01:47:43;102323.50;;;7.93;100.00
15263;BME280;7733;51.554;13.590;2023-02-12T01:50:14;102323.63;;;7.98;100.00
15263;BME280;7733;51.554;13.590;2023-02-12T01:52:48;102320.97;;;7.97;100.00
15263;BME280;7733;51.554;13.590;2023-02-12T01:55:17;102328.13;;;8.02;100.00
15263;BME280;7733;51.554;13.590;2023-02-12T01:57:46;102317.69;;;8.04;100.00
15263;BME280;7733;51.554;13.590;2023-02-12T02:00:17;102319.31;;;8.00;100.00
15263;BME280;7733;51.554;13.590;2023-02-12T02:02:48;102315.91;;;8.01;100.00
15263;BME280;7733;51.554;13.590;2023-02-12T02:05:48;102315.63;;;7.92;100.00
15263;BME280;7733;51.554;13.590;2023-02-12T02:08:17;102321.94;;;8.00;100.00
15263;BME280;7733;51.554;13.590;2023-02-12T02:10:43;102324.22;;;7.88;100.00
15263;BME280;7733;51.554;13.590;2023-02-12T02:13:09;102328.81;;;7.97;100.00
15263;BME280;7733;51.554;13.590;2023-02-12T02:15:59;102326.91;;;7.91;100.00
15263;BME280;7733;51.554;13.590;2023-02-12T02:18:52;102328.00;;;7.99;100.00
15263;BME280;7733;51.554;13.590;2023-02-12T02:21:49;102321.56;;;7.86;100.00
15263;BME280;7733;51.554;13.590;2023-02-12T02:31:16;102325.25;;;7.63;100.00
15263;BME280;7733;51.554;13.590;2023-02-12T02:42:39;102320.50;;;7.80;100.00
15263;BME280;7733;51.554;13.590;2023-02-12T02:45:24;102324.38;;;7.62;100.00
15263;BME280;7733;51.554;13.590;2023-02-12T02:48:20;102338.53;;;7.71;100.00
15263;BME280;7733;51.554;13.590;2023-02-12T02:50:58;102335.88;;;7.69;100.00
15263;BME280;7733;51.554;13.590;2023-02-12T02:53:39;102330.06;;;7.79;100.00
15263;BME280;7733;51.554;13.590;2023-02-12T02:56:13;102342.59;;;7.91;100.00
15263;BME280;7733;51.554;13.590;2023-02-12T02:58:50;102338.28;;;7.93;100.00
15263;BME280;7733;51.554;13.590;2023-02-12T03:01:43;102346.44;;;7.74;100.00
15263;BME280;7733;51.554;13.590;2023-02-12T03:04:35;102349.78;;;7.68;100.00
15263;BME280;7733;51.554;13.590;2023-02-12T03:07:21;102346.66;;;7.51;100.00
15263;BME280;7733;51.554;13.590;2023-02-12T03:09:58;102349.59;;;7.62;100.00
15263;BME280;7733;51.554;13.590;2023-02-12T03:12:35;102350.72;;;7.42;100.00
15263;BME280;7733;51.554;13.590;2023-02-12T03:15:12;102352.94;;;7.58;100.00
15263;BME280;7733;51.554;13.590;2023-02-12T03:17:47;102368.22;;;7.44;100.00
15263;BME280;7733;51.554;13.590;2023-02-12T03:20:21;102365.69;;;7.47;100.00
15263;BME280;7733;51.554;13.590;2023-02-12T03:23:00;102359.88;;;7.57;100.00
15263;BME280;7733;51.554;13.590;2023-02-12T03:25:37;102366.78;;;7.55;100.00
15263;BME280;7733;51.554;13.590;2023-02-12T03:28:19;102359.78;;;7.54;100.00
15263;BME280;7733;51.554;13.590;2023-02-12T03:31:10;102371.16;;;7.56;100.00
15263;BME280;7733;51.554;13.590;2023-02-12T03:33:58;102376.25;;;7.52;100.00
15263;BME280;7733;51.554;13.590;2023-02-12T03:36:50;102373.59;;;7.50;100.00
15263;BME280;7733;51.554;13.590;2023-02-12T03:42:35;102378.50;;;7.68;100.00
15263;BME280;7733;51.554;13.590;2023-02-12T03:51:39;102381.50;;;7.52;100.00
15263;BME280;7733;51.554;13.590;2023-02-12T03:54:08;102390.56;;;7.63;100.00
15263;BME280;7733;51.554;13.590;2023-02-12T03:56:50;102398.34;;;7.61;100.00
15263;BME280;7733;51.554;13.590;2023-02-12T03:59:20;102405.13;;;7.56;100.00
15263;BME280;7733;51.554;13.590;2023-02-12T04:01:48;102408.22;;;7.72;100.00
15263;BME280;7733;51.554;13.590;2023-02-12T04:04:16;102406.84;;;7.56;100.00
15263;BME280;7733;51.554;13.590;2023-02-12T04:06:44;102418.84;;;7.78;100.00
15263;BME280;7733;51.554;13.590;2023-02-12T04:09:12;102406.53;;;7.74;100.00
15263;BME280;7733;51.554;13.590;2023-02-12T04:23:38;102429.56;;;7.58;100.00
15263;BME280;7733;51.554;13.590;2023-02-12T04:26:22;102438.06;;;7.51;100.00
15263;BME280;7733;51.554;13.590;2023-02-12T04:29:20;102434.81;;;7.60;100.00
15263;BME280;7733;51.554;13.590;2023-02-12T04:31:55;102436.75;;;7.66;100.00
15263;BME280;7733;51.554;13.590;2023-02-12T04:34:38;102443.31;;;7.53;100.00
15263;BME280;7733;51.554;13.590;2023-02-12T04:37:36;102446.81;;;7.53;100.00
15263;BME280;7733;51.554;13.590;2023-02-12T04:40:09;102440.66;;;7.80;100.00
15263;BME280;7733;51.554;13.590;2023-02-12T04:42:48;102446.56;;;7.73;100.00
15263;BME280;7733;51.554;13.590;2023-02-12T04:45:41;102442.63;;;7.58;100.00
15263;BME280;7733;51.554;13.590;2023-02-12T04:48:07;102444.56;;;7.64;100.00
15263;BME280;7733;51.554;13.590;2023-02-12T04:50:42;102433.59;;;7.76;100.00
15263;BME280;7733;51.554;13.590;2023-02-12T04:53:10;102446.28;;;7.63;100.00
15263;BME280;7733;51.554;13.590;2023-02-12T04:55:36;102439.38;;;7.66;100.00
15263;BME280;7733;51.554;13.590;2023-02-12T04:58:02;102443.94;;;7.73;100.00
15263;BME280;7733;51.554;13.590;2023-02-12T05:00:28;102434.75;;;7.85;100.00
15263;BME280;7733;51.554;13.590;2023-02-12T05:02:54;102440.81;;;7.84;100.00
15263;BME280;7733;51.554;13.590;2023-02-12T05:05:21;102451.03;;;7.77;100.00
15263;BME280;7733;51.554;13.590;2023-02-12T05:07:47;102451.81;;;7.74;100.00
15263;BME280;7733;51.554;13.590;2023-02-12T05:10:13;102451.41;;;7.89;100.00
15263;BME280;7733;51.554;13.590;2023-02-12T05:12:39;102453.94;;;7.86;100.00
15263;BME280;7733;51.554;13.590;2023-02-12T05:15:05;102454.06;;;7.90;100.00
15263;BME280;7733;51.554;13.590;2023-02-12T05:17:30;102461.53;;;7.78;100.00
15263;BME280;7733;51.554;13.590;2023-02-12T05:19:56;102451.13;;;7.80;100.00
15263;BME280;7733;51.554;13.590;2023-02-12T05:22:22;102451.88;;;7.76;100.00
15263;BME280;7733;51.554;13.590;2023-02-12T05:24:48;102444.50;;;7.91;100.00
15263;BME280;7733;51.554;13.590;2023-02-12T05:27:14;102455.13;;;7.97;100.00
15263;BME280;7733;51.554;13.590;2023-02-12T05:29:39;102452.13;;;7.83;100.00
15263;BME280;7733;51.554;13.590;2023-02-12T05:32:06;102452.72;;;7.75;100.00
15263;BME280;7733;51.554;13.590;2023-02-12T05:34:33;102445.31;;;7.88;100.00
15263;BME280;7733;51.554;13.590;2023-02-12T05:36:58;102448.50;;;7.80;100.00
15263;BME280;7733;51.554;13.590;2023-02-12T05:39:25;102443.34;;;7.81;100.00
15263;BME280;7733;51.554;13.590;2023-02-12T05:41:51;102451.69;;;7.70;100.00
15263;BME280;7733;51.554;13.590;2023-02-12T05:44:17;102452.97;;;7.82;100.00
15263;BME280;7733;51.554;13.590;2023-02-12T05:46:43;102450.41;;;7.84;100.00
15263;BME280;7733;51.554;13.590;2023-02-12T05:49:09;102456.25;;;7.77;100.00
15263;BME280;7733;51.554;13.590;2023-02-12T05:51:36;102470.06;;;7.73;100.00
15263;BME280;7733;51.554;13.590;2023-02-12T05:54:05;102469.56;;;7.57;100.00
15263;BME280;7733;51.554;13.590;2023-02-12T05:56:40;102474.50;;;7.75;100.00
15263;BME280;7733;51.554;13.590;2023-02-12T05:59:13;102473.69;;;7.78;100.00
15263;BME280;7733;51.554;13.590;2023-02-12T06:01:42;102481.91;;;7.61;100.00
15263;BME280;7733;51.554;13.590;2023-02-12T06:04:16;102474.25;;;7.68;100.00
15263;BME280;7733;51.554;13.590;2023-02-12T06:06:43;102484.06;;;7.75;100.00
15263;BME280;7733;51.554;13.590;2023-02-12T06:09:11;102480.25;;;7.92;100.00
15263;BME280;7733;51.554;13.590;2023-02-12T06:11:37;102488.16;;;7.95;100.00
15263;BME280;7733;51.554;13.590;2023-02-12T06:14:05;102482.69;;;7.86;100.00
15263;BME280;7733;51.554;13.590;2023-02-12T06:16:33;102480.38;;;7.97;100.00
15263;BME280;7733;51.554;13.590;2023-02-12T06:19:02;102486.69;;;8.03;100.00
15263;BME280;7733;51.554;13.590;2023-02-12T06:21:30;102486.78;;;8.06;100.00
15263;BME280;7733;51.554;13.590;2023-02-12T06:23:57;102481.25;;;7.97;100.00
15263;BME280;7733;51.554;13.590;2023-02-12T06:26:23;102487.06;;;7.87;100.00
15263;BME280;7733;51.554;13.590;2023-02-12T06:28:49;102493.75;;;7.79;100.00
15263;BME280;7733;51.554;13.590;2023-02-12T06:31:25;102496.09;;;7.70;100.00
15263;BME280;7733;51.554;13.590;2023-02-12T06:33:54;102500.84;;;7.81;100.00
15263;BME280;7733;51.554;13.590;2023-02-12T06:36:21;102501.31;;;7.70;100.00
15263;BME280;7733;51.554;13.590;2023-02-12T06:38:48;102515.81;;;7.87;100.00
15263;BME280;7733;51.554;13.590;2023-02-12T06:41:15;102522.97;;;7.94;100.00
15263;BME280;7733;51.554;13.590;2023-02-12T06:43:41;102521.31;;;7.69;100.00
15263;BME280;7733;51.554;13.590;2023-02-12T06:46:07;102523.06;;;7.69;100.00
15263;BME280;7733;51.554;13.590;2023-02-12T06:48:34;102515.41;;;7.75;100.00
15263;BME280;7733;51.554;13.590;2023-02-12T06:51:10;102527.84;;;7.82;100.00
15263;BME280;7733;51.554;13.590;2023-02-12T06:53:36;102526.31;;;7.88;100.00
15263;BME280;7733;51.554;13.590;2023-02-12T06:56:04;102534.09;;;7.87;100.00
15263;BME280;7733;51.554;13.590;2023-02-12T06:58:30;102531.66;;;7.93;100.00
15263;BME280;7733;51.554;13.590;2023-02-12T07:00:56;102541.00;;;7.85;100.00
15263;BME280;7733;51.554;13.590;2023-02-12T07:03:22;102538.84;;;8.00;100.00
15263;BME280;7733;51.554;13.590;2023-02-12T07:05:48;102540.78;;;8.06;100.00
15263;BME280;7733;51.554;13.590;2023-02-12T07:08:14;102548.41;;;8.00;100.00
15263;BME280;7733;51.554;13.590;2023-02-12T07:10:40;102552.28;;;7.84;100.00
15263;BME280;7733;51.554;13.590;2023-02-12T07:13:06;102553.47;;;7.67;100.00
15263;BME280;7733;51.554;13.590;2023-02-12T07:15:31;102550.25;;;8.02;100.00
15263;BME280;7733;51.554;13.590;2023-02-12T07:17:57;102558.84;;;8.27;100.00
15263;BME280;7733;51.554;13.590;2023-02-12T07:20:23;102549.59;;;8.09;100.00
15263;BME280;7733;51.554;13.590;2023-02-12T07:22:48;102552.91;;;8.32;100.00
15263;BME280;7733;51.554;13.590;2023-02-12T07:25:14;102556.75;;;8.42;100.00
15263;BME280;7733;51.554;13.590;2023-02-12T07:27:40;102554.88;;;8.11;100.00
15263;BME280;7733;51.554;13.590;2023-02-12T07:30:06;102556.81;;;8.45;100.00
15263;BME280;7733;51.554;13.590;2023-02-12T07:32:33;102564.84;;;8.51;100.00
15263;BME280;7733;51.554;13.590;2023-02-12T07:34:59;102568.47;;;8.28;100.00
15263;BME280;7733;51.554;13.590;2023-02-12T07:37:25;102571.53;;;8.14;100.00
15263;BME280;7733;51.554;13.590;2023-02-12T07:39:51;102567.53;;;8.26;100.00
15263;BME280;7733;51.554;13.590;2023-02-12T07:42:17;102576.75;;;8.14;100.00
15263;BME280;7733;51.554;13.590;2023-02-12T07:44:44;102578.78;;;8.23;100.00
15263;BME280;7733;51.554;13.590;2023-02-12T07:47:09;102580.78;;;8.03;100.00
15263;BME280;7733;51.554;13.590;2023-02-12T07:49:35;102586.81;;;8.29;100.00
15263;BME280;7733;51.554;13.590;2023-02-12T07:52:01;102586.88;;;8.31;100.00
15263;BME280;7733;51.554;13.590;2023-02-12T07:54:27;102595.47;;;8.27;100.00
15263;BME280;7733;51.554;13.590;2023-02-12T07:56:53;102595.75;;;8.36;100.00
15263;BME280;7733;51.554;13.590;2023-02-12T07:59:19;102595.25;;;8.20;100.00
15263;BME280;7733;51.554;13.590;2023-02-12T08:01:48;102604.84;;;8.47;100.00
15263;BME280;7733;51.554;13.590;2023-02-12T08:04:21;102601.53;;;8.26;100.00
15263;BME280;7733;51.554;13.590;2023-02-12T08:06:51;102618.50;;;8.38;100.00
15263;BME280;7733;51.554;13.590;2023-02-12T08:09:24;102610.38;;;8.02;100.00
15263;BME280;7733;51.554;13.590;2023-02-12T08:11:50;102614.19;;;8.13;100.00
15263;BME280;7733;51.554;13.590;2023-02-12T08:14:19;102608.53;;;8.27;100.00
15263;BME280;7733;51.554;13.590;2023-02-12T08:16:47;102613.00;;;8.31;100.00
15263;BME280;7733;51.554;13.590;2023-02-12T08:19:13;102615.88;;;8.11;100.00
15263;BME280;7733;51.554;13.590;2023-02-12T08:21:39;102618.44;;;8.37;100.00
15263;BME280;7733;51.554;13.590;2023-02-12T08:24:05;102625.44;;;8.11;100.00
15263;BME280;7733;51.554;13.590;2023-02-12T08:26:36;102618.41;;;8.08;100.00
15263;BME280;7733;51.554;13.590;2023-02-12T08:29:06;102619.91;;;8.29;100.00
15263;BME280;7733;51.554;13.590;2023-02-12T08:31:36;102625.16;;;8.29;100.00
15263;BME280;7733;51.554;13.590;2023-02-12T08:34:04;102621.16;;;8.40;100.00
15263;BME280;7733;51.554;13.590;2023-02-12T08:36:38;102628.91;;;8.37;100.00
15263;BME280;7733;51.554;13.590;2023-02-12T08:39:06;102624.84;;;8.19;100.00
15263;BME280;7733;51.554;13.590;2023-02-12T08:41:33;102620.00;;;8.32;100.00
15263;BME280;7733;51.554;13.590;2023-02-12T08:44:03;102619.09;;;8.30;100.00
15263;BME280;7733;51.554;13.590;2023-02-12T08:46:35;102620.63;;;8.23;100.00
15263;BME280;7733;51.554;13.590;2023-02-12T08:49:06;102622.94;;;8.41;100.00
15263;BME280;7733;51.554;13.590;2023-02-12T08:51:37;102617.25;;;8.27;100.00
15263;BME280;7733;51.554;13.590;2023-02-12T08:54:06;102631.03;;;8.21;100.00
15263;BME280;7733;51.554;13.590;2023-02-12T08:56:34;102637.94;;;8.46;100.00
15263;BME280;7733;51.554;13.590;2023-02-12T08:59:03;102642.25;;;8.19;100.00
15263;BME280;7733;51.554;13.590;2023-02-12T09:01:34;102636.81;;;8.38;100.00
15263;BME280;7733;51.554;13.590;2023-02-12T09:04:03;102642.84;;;8.36;100.00
15263;BME280;7733;51.554;13.590;2023-02-12T09:06:32;102642.22;;;8.17;100.00
15263;BME280;7733;51.554;13.590;2023-02-12T09:08:59;102645.13;;;8.27;100.00
15263;BME280;7733;51.554;13.590;2023-02-12T09:11:27;102645.19;;;8.55;100.00
15263;BME280;7733;51.554;13.590;2023-02-12T09:16:34;102652.94;;;8.52;100.00
15263;BME280;7733;51.554;13.590;2023-02-12T09:19:01;102647.56;;;8.76;100.00
15263;BME280;7733;51.554;13.590;2023-02-12T09:21:27;102653.47;;;8.69;100.00
15263;BME280;7733;51.554;13.590;2023-02-12T09:23:53;102654.25;;;8.66;100.00
15263;BME280;7733;51.554;13.590;2023-02-12T09:26:22;102658.06;;;8.77;100.00
15263;BME280;7733;51.554;13.590;2023-02-12T09:28:50;102657.34;;;8.81;100.00
15263;BME280;7733;51.554;13.590;2023-02-12T09:31:24;102656.84;;;8.95;100.00
15263;BME280;7733;51.554;13.590;2023-02-12T09:34:00;102660.09;;;8.86;100.00
15263;BME280;7733;51.554;13.590;2023-02-12T09:36:26;102663.81;;;8.94;100.00
15263;BME280;7733;51.554;13.590;2023-02-12T09:38:52;102676.47;;;8.80;100.00
15263;BME280;7733;51.554;13.590;2023-02-12T09:44:36;102681.44;;;8.71;100.00
15263;BME280;7733;51.554;13.590;2023-02-12T09:47:32;102681.53;;;8.74;100.00
15263;BME280;7733;51.554;13.590;2023-02-12T09:53:16;102677.09;;;8.72;100.00
15263;BME280;7733;51.554;13.590;2023-02-12T09:55:44;102677.06;;;8.70;100.00
15263;BME280;7733;51.554;13.590;2023-02-12T09:59:00;102679.44;;;8.91;100.00
15263;BME280;7733;51.554;13.590;2023-02-12T10:01:27;102680.41;;;8.95;100.00
15263;BME280;7733;51.554;13.590;2023-02-12T10:03:54;102680.47;;;8.98;100.00
15263;BME280;7733;51.554;13.590;2023-02-12T10:06:48;102686.47;;;8.94;100.00
15263;BME280;7733;51.554;13.590;2023-02-12T10:12:59;102679.44;;;9.21;100.00
15263;BME280;7733;51.554;13.590;2023-02-12T10:15:53;102696.41;;;9.04;100.00
15263;BME280;7733;51.554;13.590;2023-02-12T10:21:35;102685.06;;;8.76;100.00
15263;BME280;7733;51.554;13.590;2023-02-12T10:24:36;102673.38;;;8.94;100.00
15263;BME280;7733;51.554;13.590;2023-02-12T10:27:14;102691.03;;;9.01;100.00
15263;BME280;7733;51.554;13.590;2023-02-12T10:29:44;102677.78;;;8.95;100.00
15263;BME280;7733;51.554;13.590;2023-02-12T10:32:26;102683.19;;;9.01;100.00
15263;BME280;7733;51.554;13.590;2023-02-12T10:34:55;102679.03;;;9.07;100.00
15263;BME280;7733;51.554;13.590;2023-02-12T10:37:52;102690.22;;;9.02;100.00
15263;BME280;7733;51.554;13.590;2023-02-12T10:40:27;102685.91;;;9.04;100.00
15263;BME280;7733;51.554;13.590;2023-02-12T10:42:58;102673.69;;;9.34;100.00
15263;BME280;7733;51.554;13.590;2023-02-12T10:45:35;102679.59;;;8.97;100.00
15263;BME280;7733;51.554;13.590;2023-02-12T10:48:12;102669.16;;;8.99;100.00
15263;BME280;7733;51.554;13.590;2023-02-12T10:53:41;102662.69;;;9.16;100.00
15263;BME280;7733;51.554;13.590;2023-02-12T10:56:19;102658.00;;;9.04;100.00
15263;BME280;7733;51.554;13.590;2023-02-12T11:01:38;102659.22;;;9.17;100.00
15263;BME280;7733;51.554;13.590;2023-02-12T11:04:35;102665.44;;;9.21;100.00
15263;BME280;7733;51.554;13.590;2023-02-12T11:07:03;102664.50;;;9.19;100.00
15263;BME280;7733;51.554;13.590;2023-02-12T11:09:39;102662.75;;;9.49;100.00
15263;BME280;7733;51.554;13.590;2023-02-12T11:12:39;102660.63;;;9.36;100.00
15263;BME280;7733;51.554;13.590;2023-02-12T11:15:22;102663.13;;;9.31;100.00
15263;BME280;7733;51.554;13.590;2023-02-12T11:18:04;102665.78;;;9.33;100.00
15263;BME280;7733;51.554;13.590;2023-02-12T11:20:40;102663.44;;;9.75;100.00
15263;BME280;7733;51.554;13.590;2023-02-12T11:23:40;102663.63;;;9.50;100.00
15263;BME280;7733;51.554;13.590;2023-02-12T11:28:57;102658.56;;;9.56;100.00
15263;BME280;7733;51.554;13.590;2023-02-12T11:31:31;102660.16;;;9.51;100.00
15263;BME280;7733;51.554;13.590;2023-02-12T11:34:17;102656.47;;;9.42;100.00
15263;BME280;7733;51.554;13.590;2023-02-12T11:36:52;102653.31;;;9.23;100.00
15263;BME280;7733;51.554;13.590;2023-02-12T11:39:31;102658.97;;;9.39;100.00
15263;BME280;7733;51.554;13.590;2023-02-12T11:42:05;102658.41;;;9.50;100.00
15263;BME280;7733;51.554;13.590;2023-02-12T11:44:50;102659.09;;;9.42;100.00
15263;BME280;7733;51.554;13.590;2023-02-12T11:47:22;102647.84;;;9.47;100.00
15263;BME280;7733;51.554;13.590;2023-02-12T11:49:55;102645.97;;;9.75;100.00
15263;BME280;7733;51.554;13.590;2023-02-12T11:52:34;102639.97;;;9.47;100.00
15263;BME280;7733;51.554;13.590;2023-02-12T11:55:16;102650.28;;;9.40;100.00
15263;BME280;7733;51.554;13.590;2023-02-12T11:57:48;102639.38;;;9.57;100.00
15263;BME280;7733;51.554;13.590;2023-02-12T12:00:36;102646.56;;;9.32;100.00
15263;BME280;7733;51.554;13.590;2023-02-12T12:03:24;102643.53;;;9.49;100.00
15263;BME280;7733;51.554;13.590;2023-02-12T12:06:12;102642.47;;;9.75;100.00
15263;BME280;7733;51.554;13.590;2023-02-12T12:12:23;102648.16;;;9.59;100.00
15263;BME280;7733;51.554;13.590;2023-02-12T12:14:58;102646.72;;;9.70;100.00
15263;BME280;7733;51.554;13.590;2023-02-12T12:17:56;102645.75;;;9.66;100.00
15263;BME280;7733;51.554;13.590;2023-02-12T12:21:07;102640.28;;;9.92;100.00
15263;BME280;7733;51.554;13.590;2023-02-12T12:23:41;102649.00;;;9.91;100.00
15263;BME280;7733;51.554;13.590;2023-02-12T12:26:19;102646.22;;;9.85;100.00
15263;BME280;7733;51.554;13.590;2023-02-12T12:29:02;102647.91;;;9.50;100.00
15263;BME280;7733;51.554;13.590;2023-02-12T12:31:48;102644.22;;;9.41;100.00
15263;BME280;7733;51.554;13.590;2023-02-12T12:34:21;102648.34;;;9.65;100.00
15263;BME280;7733;51.554;13.590;2023-02-12T12:54:15;102618.84;;;9.73;100.00
15263;BME280;7733;51.554;13.590;2023-02-12T13:06:25;102614.97;;;9.94;100.00
15263;BME280;7733;51.554;13.590;2023-02-12T13:12:48;102612.81;;;9.77;100.00
15263;BME280;7733;51.554;13.590;2023-02-12T13:22:10;102609.94;;;10.01;100.00
15263;BME280;7733;51.554;13.590;2023-02-12T13:27:29;102610.28;;;10.17;100.00
15263;BME280;7733;51.554;13.590;2023-02-12T13:32:44;102618.69;;;10.02;100.00
15263;BME280;7733;51.554;13.590;2023-02-12T13:35:20;102612.84;;;10.14;100.00
15263;BME280;7733;51.554;13.590;2023-02-12T13:37:52;102606.97;;;10.22;100.00
15263;BME280;7733;51.554;13.590;2023-02-12T13:40:27;102612.28;;;10.25;100.00
15263;BME280;7733;51.554;13.590;2023-02-12T13:43:40;102607.00;;;10.24;100.00
15263;BME280;7733;51.554;13.590;2023-02-12T13:46:28;102605.47;;;9.99;100.00
15263;BME280;7733;51.554;13.590;2023-02-12T13:49:25;102614.41;;;10.05;100.00
15263;BME280;7733;51.554;13.590;2023-02-12T13:52:16;102611.13;;;9.80;100.00
15263;BME280;7733;51.554;13.590;2023-02-12T13:55:18;102618.69;;;10.02;100.00
15263;BME280;7733;51.554;13.590;2023-02-12T14:01:12;102615.88;;;9.94;100.00
15263;BME280;7733;51.554;13.590;2023-02-12T14:03:40;102616.25;;;10.10;100.00
15263;BME280;7733;51.554;13.590;2023-02-12T14:06:19;102624.50;;;9.90;100.00
15263;BME280;7733;51.554;13.590;2023-02-12T14:09:07;102628.06;;;9.92;100.00
15263;BME280;7733;51.554;13.590;2023-02-12T14:11:48;102611.88;;;10.10;100.00
15263;BME280;7733;51.554;13.590;2023-02-12T14:16:52;102604.28;;;10.21;100.00
15263;BME280;7733;51.554;13.590;2023-02-12T14:28:23;102599.69;;;10.12;100.00
15263;BME280;7733;51.554;13.590;2023-02-12T14:33:47;102601.25;;;10.04;100.00
15263;BME280;7733;51.554;13.590;2023-02-12T14:36:37;102605.69;;;10.06;100.00
15263;BME280;7733;51.554;13.590;2023-02-12T14:41:48;102609.81;;;10.33;100.00
15263;BME280;7733;51.554;13.590;2023-02-12T14:47:02;102606.81;;;10.18;100.00
15263;BME280;7733;51.554;13.590;2023-02-12T14:52:25;102620.63;;;10.45;100.00
15263;BME280;7733;51.554;13.590;2023-02-12T14:54:54;102615.47;;;10.50;100.00
15263;BME280;7733;51.554;13.590;2023-02-12T14:57:35;102620.03;;;10.60;100.00
15263;BME280;7733;51.554;13.590;2023-02-12T15:00:27;102621.63;;;10.52;100.00
15263;BME280;7733;51.554;13.590;2023-02-12T15:05:36;102627.47;;;10.79;100.00
15263;BME280;7733;51.554;13.590;2023-02-12T15:09:35;102622.16;;;10.76;100.00
15263;BME280;7733;51.554;13.590;2023-02-12T15:12:10;102624.78;;;10.76;100.00
15263;BME280;7733;51.554;13.590;2023-02-12T15:14:43;102620.19;;;10.66;100.00
15263;BME280;7733;51.554;13.590;2023-02-12T15:17:23;102616.81;;;10.72;100.00
15263;BME280;7733;51.554;13.590;2023-02-12T15:20:02;102624.53;;;10.64;100.00
15263;BME280;7733;51.554;13.590;2023-02-12T15:22:38;102626.66;;;10.41;100.00
15263;BME280;7733;51.554;13.590;2023-02-12T15:25:25;102629.75;;;10.25;100.00
15263;BME280;7733;51.554;13.590;2023-02-12T15:28:24;102605.78;;;9.75;100.00
15263;BME280;7733;51.554;13.590;2023-02-12T15:30:56;102620.84;;;10.20;100.00
15263;BME280;7733;51.554;13.590;2023-02-12T15:33:30;102629.53;;;10.17;100.00
15263;BME280;7733;51.554;13.590;2023-02-12T15:36:00;102635.31;;;10.39;100.00
15263;BME280;7733;51.554;13.590;2023-02-12T15:38:40;102623.94;;;10.38;100.00
15263;BME280;7733;51.554;13.590;2023-02-12T15:41:08;102627.59;;;10.09;100.00